Time;durP1;ratioP1;P1;durP2;ratioP2;P2;SDS_P1;SDS_P2;PMS_P1;PMS_P2;Temp;Humidity;BMP_temperature;BMP_pressure;BME280_temperature;BME280_humidity;BME280_pressure;Samples;Min_cycle;Max_cycle;Signal;HPM_P1;HPM_P2
2023/07/30 00:02:14;;;;;;;9.00;3.47;;;;;;;;;;5057696;28;21021;-67
2023/07/30 00:04:39;;;;;;;7.47;3.35;;;;;;;;;;5053974;28;20031;-67
2023/07/30 00:07:05;;;;;;;8.77;3.15;;;;;;;;;;5058006;28;20040;-67
2023/07/30 00:09:30;;;;;;;8.45;3.30;;;;;;;;;;5050074;28;20055;-67
2023/07/30 00:11:56;;;;;;;6.15;3.00;;;;;;;;;;5054148;28;20047;-68
2023/07/30 00:14:21;;;;;;;4.63;2.53;;;;;;;;;;5056573;28;20969;-67
2023/07/30 00:16:46;;;;;;;7.10;3.13;;;;;;;;;;5050046;28;20384;-67
2023/07/30 00:19:11;;;;;;;8.85;3.58;;;;;;;;;;5057897;28;20266;-67
2023/07/30 00:21:37;;;;;;;4.40;2.50;;;;;;;;;;5052435;28;20875;-67
2023/07/30 00:24:02;;;;;;;6.60;2.63;;;;;;;;;;5050272;28;21381;-67
2023/07/30 00:26:28;;;;;;;4.97;2.63;;;;;;;;;;5053425;28;20032;-67
2023/07/30 00:28:54;;;;;;;4.85;2.85;;;;;;;;;;5057664;28;20044;-68
2023/07/30 00:31:19;;;;;;;4.53;2.50;;;;;;;;;;5047642;28;20086;-67
2023/07/30 00:33:44;;;;;;;3.20;2.20;;;;;;;;;;5047119;28;20862;-67
2023/07/30 00:36:09;;;;;;;5.43;2.85;;;;;;;;;;5069121;28;20648;-67
2023/07/30 00:38:35;;;;;;;6.87;3.00;;;;;;;;;;5048515;28;20036;-67
2023/07/30 00:41:00;;;;;;;6.07;2.80;;;;;;;;;;5057530;28;20265;-67
2023/07/30 00:43:25;;;;;;;6.60;2.93;;;;;;;;;;5052644;28;20305;-67
2023/07/30 00:45:50;;;;;;;4.93;2.47;;;;;;;;;;5049571;28;20389;-67
2023/07/30 00:48:16;;;;;;;5.07;2.22;;;;;;;;;;5054544;28;20020;-67
2023/07/30 00:50:41;;;;;;;5.68;2.33;;;;;;;;;;5047171;28;20911;-67
2023/07/30 00:53:08;;;;;;;7.05;2.63;;;;;;;;;;5047992;28;20066;-67
2023/07/30 00:55:34;;;;;;;8.05;2.70;;;;;;;;;;5054893;28;20027;-67
2023/07/30 00:58:00;;;;;;;5.85;2.50;;;;;;;;;;5061762;28;20077;-67
2023/07/30 01:00:26;;;;;;;9.13;2.85;;;;;;;;;;5056388;28;20033;-67
2023/07/30 01:02:52;;;;;;;5.05;2.85;;;;;;;;;;5047029;28;20854;-67
2023/07/30 01:05:17;;;;;;;8.95;3.60;;;;;;;;;;5046754;28;20031;-67
2023/07/30 01:07:42;;;;;;;6.43;2.78;;;;;;;;;;5059923;28;20814;-66
2023/07/30 01:10:08;;;;;;;10.35;3.08;;;;;;;;;;5054137;28;20803;-67
2023/07/30 01:12:34;;;;;;;5.78;2.55;;;;;;;;;;5046458;28;20032;-67
2023/07/30 01:14:59;;;;;;;5.18;2.60;;;;;;;;;;5061140;28;20031;-66
2023/07/30 01:17:25;;;;;;;5.10;2.80;;;;;;;;;;5048013;28;20870;-66
2023/07/30 01:19:54;;;;;;;5.97;2.83;;;;;;;;;;5060265;28;20950;-68
2023/07/30 01:22:20;;;;;;;9.32;3.35;;;;;;;;;;5058695;28;20020;-68
2023/07/30 01:24:46;;;;;;;7.40;3.03;;;;;;;;;;5060720;28;20127;-68
2023/07/30 01:27:14;;;;;;;9.30;3.38;;;;;;;;;;5054353;28;20881;-68
2023/07/30 01:29:44;;;;;;;5.32;2.65;;;;;;;;;;5062855;28;20024;-68
2023/07/30 01:32:11;;;;;;;6.45;2.88;;;;;;;;;;5063228;28;20086;-68
2023/07/30 01:34:37;;;;;;;5.43;2.65;;;;;;;;;;5056908;28;20086;-67
2023/07/30 01:37:02;;;;;;;7.40;2.88;;;;;;;;;;5061536;28;20084;-68
2023/07/30 01:39:28;;;;;;;5.38;2.10;;;;;;;;;;5073457;28;20437;-67
2023/07/30 01:41:54;;;;;;;7.95;2.88;;;;;;;;;;5079577;28;20024;-67
2023/07/30 01:44:19;;;;;;;5.68;2.50;;;;;;;;;;5048892;28;20166;-67
2023/07/30 01:46:45;;;;;;;5.50;2.15;;;;;;;;;;5061051;28;21050;-66
2023/07/30 01:49:10;;;;;;;5.03;2.23;;;;;;;;;;5060506;28;20922;-66
2023/07/30 01:51:35;;;;;;;6.27;2.57;;;;;;;;;;5063851;28;21114;-66
2023/07/30 01:54:00;;;;;;;5.60;2.67;;;;;;;;;;5054240;28;20392;-66
2023/07/30 01:56:26;;;;;;;6.40;2.40;;;;;;;;;;5053279;28;20278;-66
2023/07/30 01:58:51;;;;;;;3.95;2.10;;;;;;;;;;5049283;28;20281;-66
2023/07/30 02:01:16;;;;;;;5.47;2.72;;;;;;;;;;5033051;28;20035;-66
2023/07/30 02:03:41;;;;;;;5.55;2.65;;;;;;;;;;5059509;28;20873;-66
2023/07/30 02:06:07;;;;;;;8.07;3.00;;;;;;;;;;5049407;28;20375;-65
2023/07/30 02:08:32;;;;;;;5.32;2.83;;;;;;;;;;5050059;28;20856;-66
2023/07/30 02:10:58;;;;;;;7.07;2.80;;;;;;;;;;5051036;28;20039;-66
2023/07/30 02:13:24;;;;;;;4.15;2.30;;;;;;;;;;5054120;28;20914;-66
2023/07/30 02:15:49;;;;;;;9.45;3.47;;;;;;;;;;5061019;28;20027;-66
2023/07/30 02:18:14;;;;;;;6.78;2.53;;;;;;;;;;5058759;28;20907;-65
2023/07/30 02:20:40;;;;;;;9.40;2.60;;;;;;;;;;5062035;28;20085;-66
2023/07/30 02:23:05;;;;;;;9.23;2.73;;;;;;;;;;5064197;28;20281;-66
2023/07/30 02:25:30;;;;;;;8.20;2.78;;;;;;;;;;5036052;28;21188;-66
2023/07/30 02:27:56;;;;;;;11.75;2.83;;;;;;;;;;5065009;28;20105;-66
2023/07/30 02:30:21;;;;;;;6.13;2.50;;;;;;;;;;5053157;28;20097;-66
2023/07/30 02:32:46;;;;;;;5.35;2.55;;;;;;;;;;5060579;28;20913;-66
2023/07/30 02:35:12;;;;;;;6.47;2.00;;;;;;;;;;5050595;28;20012;-66
2023/07/30 02:37:37;;;;;;;8.85;2.67;;;;;;;;;;5050086;28;20302;-66
2023/07/30 02:40:04;;;;;;;6.07;2.17;;;;;;;;;;5065002;28;20031;-66
2023/07/30 02:42:30;;;;;;;5.63;2.47;;;;;;;;;;5053724;28;20447;-66
2023/07/30 02:44:55;;;;;;;7.07;2.78;;;;;;;;;;5061740;28;20028;-66
2023/07/30 02:47:20;;;;;;;8.88;3.17;;;;;;;;;;5055933;28;20020;-67
2023/07/30 02:49:45;;;;;;;6.18;2.40;;;;;;;;;;5058278;28;20101;-67
2023/07/30 02:52:11;;;;;;;6.10;2.40;;;;;;;;;;5051606;28;20861;-68
2023/07/30 02:54:36;;;;;;;6.38;2.47;;;;;;;;;;5055683;28;20405;-67
2023/07/30 02:57:01;;;;;;;7.75;2.75;;;;;;;;;;5054678;28;20059;-67
2023/07/30 02:59:27;;;;;;;7.33;2.53;;;;;;;;;;5061530;28;20020;-68
2023/07/30 03:01:52;;;;;;;5.97;2.70;;;;;;;;;;5048864;28;20274;-67
2023/07/30 03:04:18;;;;;;;6.87;2.80;;;;;;;;;;5049677;28;20031;-68
2023/07/30 03:06:43;;;;;;;6.63;2.85;;;;;;;;;;5083295;28;20273;-68
2023/07/30 03:09:08;;;;;;;4.77;2.67;;;;;;;;;;5052655;28;20024;-68
2023/07/30 03:11:33;;;;;;;5.25;2.65;;;;;;;;;;5063562;28;20282;-67
2023/07/30 03:13:59;;;;;;;7.45;2.70;;;;;;;;;;5054645;28;20024;-68
2023/07/30 03:16:24;;;;;;;8.65;3.33;;;;;;;;;;5071583;28;20131;-67
2023/07/30 03:18:49;;;;;;;8.23;3.10;;;;;;;;;;5062169;28;20031;-68
2023/07/30 03:21:14;;;;;;;5.30;2.75;;;;;;;;;;5052823;28;20327;-68
2023/07/30 03:23:40;;;;;;;7.40;2.90;;;;;;;;;;5054147;28;20032;-68
2023/07/30 03:26:06;;;;;;;5.60;2.55;;;;;;;;;;5053282;28;20270;-67
2023/07/30 03:28:31;;;;;;;8.30;2.50;;;;;;;;;;5051301;28;20059;-67
2023/07/30 03:30:57;;;;;;;5.00;2.00;;;;;;;;;;5055538;28;20929;-67
2023/07/30 03:33:22;;;;;;;6.90;2.38;;;;;;;;;;5058398;28;20032;-68
2023/07/30 03:35:48;;;;;;;5.93;2.27;;;;;;;;;;5054927;28;20902;-67
2023/07/30 03:38:13;;;;;;;7.38;2.63;;;;;;;;;;5057529;28;20554;-67
2023/07/30 03:40:38;;;;;;;6.18;1.75;;;;;;;;;;5049725;28;20027;-67
2023/07/30 03:43:03;;;;;;;5.53;2.13;;;;;;;;;;5058016;28;20028;-68
2023/07/30 03:45:29;;;;;;;4.65;1.95;;;;;;;;;;5056283;28;20330;-67
2023/07/30 03:47:54;;;;;;;4.93;2.30;;;;;;;;;;5060870;28;20743;-68
2023/07/30 03:50:19;;;;;;;6.73;2.27;;;;;;;;;;5063775;28;20323;-69
2023/07/30 03:52:44;;;;;;;5.25;1.98;;;;;;;;;;5086861;28;20339;-69
2023/07/30 03:55:10;;;;;;;5.95;2.22;;;;;;;;;;5062445;28;20019;-69
2023/07/30 03:57:35;;;;;;;7.32;2.17;;;;;;;;;;5056600;28;20857;-69
2023/07/30 04:00:00;;;;;;;6.17;1.60;;;;;;;;;;5054980;28;20020;-68
2023/07/30 04:02:26;;;;;;;4.90;1.50;;;;;;;;;;5059306;28;20277;-68
2023/07/30 04:04:51;;;;;;;4.35;1.83;;;;;;;;;;5058578;28;20016;-69
2023/07/30 04:07:16;;;;;;;7.93;1.83;;;;;;;;;;5052491;28;20823;-69
2023/07/30 04:09:41;;;;;;;5.32;1.67;;;;;;;;;;5064389;28;20127;-69
2023/07/30 04:12:07;;;;;;;9.25;1.73;;;;;;;;;;5083198;28;20086;-68
2023/07/30 04:14:32;;;;;;;5.10;1.90;;;;;;;;;;5059924;28;20048;-68
2023/07/30 04:16:57;;;;;;;6.90;1.70;;;;;;;;;;5051932;28;20089;-68
2023/07/30 04:19:23;;;;;;;5.50;1.70;;;;;;;;;;5052199;28;20893;-67
2023/07/30 04:21:48;;;;;;;4.13;1.60;;;;;;;;;;5077585;28;20081;-67
2023/07/30 04:24:13;;;;;;;5.70;1.97;;;;;;;;;;5107099;28;20500;-66
2023/07/30 04:26:38;;;;;;;10.13;2.13;;;;;;;;;;5053833;28;21129;-66
2023/07/30 04:29:04;;;;;;;4.57;1.58;;;;;;;;;;5058547;28;20328;-68
2023/07/30 04:31:29;;;;;;;4.60;1.70;;;;;;;;;;5051530;28;20027;-68
2023/07/30 04:33:54;;;;;;;4.78;1.58;;;;;;;;;;5043720;28;20750;-68
2023/07/30 04:36:19;;;;;;;4.65;1.33;;;;;;;;;;5049986;28;20024;-67
2023/07/30 04:38:45;;;;;;;4.75;1.75;;;;;;;;;;5048919;28;20028;-67
2023/07/30 04:41:10;;;;;;;4.83;1.77;;;;;;;;;;5051466;28;20232;-67
2023/07/30 04:43:35;;;;;;;4.57;1.38;;;;;;;;;;5047662;28;20288;-67
2023/07/30 04:46:00;;;;;;;3.95;1.20;;;;;;;;;;5060953;28;20047;-67
2023/07/30 04:48:26;;;;;;;6.32;1.60;;;;;;;;;;5054359;28;20024;-67
2023/07/30 04:50:51;;;;;;;4.63;1.40;;;;;;;;;;5054528;28;20122;-67
2023/07/30 04:53:18;;;;;;;5.00;1.38;;;;;;;;;;5056946;28;20027;-67
2023/07/30 04:55:43;;;;;;;4.35;1.40;;;;;;;;;;5052391;28;20135;-67
2023/07/30 04:58:08;;;;;;;6.65;1.40;;;;;;;;;;5057507;28;20024;-67
2023/07/30 05:00:33;;;;;;;2.55;0.90;;;;;;;;;;5055063;28;20079;-67
2023/07/30 05:02:59;;;;;;;4.13;1.20;;;;;;;;;;5078792;28;20023;-67
2023/07/30 05:05:24;;;;;;;4.57;1.60;;;;;;;;;;5056381;28;20281;-67
2023/07/30 05:07:49;;;;;;;4.68;1.75;;;;;;;;;;5060093;28;20039;-67
2023/07/30 05:10:16;;;;;;;5.18;1.63;;;;;;;;;;5056997;28;20109;-68
2023/07/30 05:12:41;;;;;;;4.30;1.23;;;;;;;;;;5061534;28;20877;-67
2023/07/30 05:15:06;;;;;;;6.22;1.55;;;;;;;;;;5057219;28;20053;-67
2023/07/30 05:17:32;;;;;;;6.57;2.10;;;;;;;;;;5059176;28;20020;-67
2023/07/30 05:19:57;;;;;;;7.05;1.67;;;;;;;;;;5048992;28;20032;-67
2023/07/30 05:22:22;;;;;;;5.72;1.63;;;;;;;;;;5058887;28;20020;-67
2023/07/30 05:24:47;;;;;;;4.72;1.98;;;;;;;;;;5050637;28;20032;-67
2023/07/30 05:27:13;;;;;;;7.20;1.83;;;;;;;;;;5062511;28;20055;-67
2023/07/30 05:29:38;;;;;;;5.40;1.80;;;;;;;;;;5037918;28;20077;-67
2023/07/30 05:32:04;;;;;;;6.13;1.98;;;;;;;;;;5058995;28;20023;-66
2023/07/30 05:34:30;;;;;;;7.78;1.63;;;;;;;;;;5034098;28;20375;-66
2023/07/30 05:36:55;;;;;;;7.00;1.83;;;;;;;;;;5063937;28;20023;-66
2023/07/30 05:39:20;;;;;;;4.73;1.60;;;;;;;;;;5060197;28;20131;-66
2023/07/30 05:41:45;;;;;;;5.93;1.93;;;;;;;;;;5053542;28;20276;-67
2023/07/30 05:44:10;;;;;;;6.72;1.95;;;;;;;;;;5057237;28;20273;-67
2023/07/30 05:46:36;;;;;;;4.05;1.40;;;;;;;;;;5058537;28;20909;-67
2023/07/30 05:49:01;;;;;;;7.07;1.57;;;;;;;;;;5056008;28;20955;-67
2023/07/30 05:51:26;;;;;;;6.17;1.80;;;;;;;;;;5048971;28;21190;-68
2023/07/30 05:53:51;;;;;;;5.45;2.03;;;;;;;;;;5048438;28;21187;-66
2023/07/30 05:56:18;;;;;;;6.10;1.83;;;;;;;;;;5049869;28;20025;-66
2023/07/30 05:58:43;;;;;;;6.97;1.60;;;;;;;;;;5104882;28;20343;-67
2023/07/30 06:01:09;;;;;;;5.97;2.05;;;;;;;;;;5064251;28;20031;-66
2023/07/30 06:03:34;;;;;;;7.13;1.92;;;;;;;;;;5068231;28;20060;-67
2023/07/30 06:06:00;;;;;;;5.70;1.80;;;;;;;;;;5054967;28;20024;-67
2023/07/30 06:08:26;;;;;;;4.95;1.92;;;;;;;;;;5047798;28;20068;-67
2023/07/30 06:10:51;;;;;;;7.43;2.30;;;;;;;;;;5054478;28;20034;-67
2023/07/30 06:13:16;;;;;;;5.50;1.52;;;;;;;;;;5056047;28;20845;-66
2023/07/30 06:15:41;;;;;;;4.95;1.52;;;;;;;;;;5051820;28;20063;-67
2023/07/30 06:18:07;;;;;;;5.80;1.95;;;;;;;;;;5056743;28;20093;-66
2023/07/30 06:20:32;;;;;;;3.80;1.90;;;;;;;;;;5051955;28;20203;-66
2023/07/30 06:22:57;;;;;;;10.70;2.42;;;;;;;;;;5071853;28;20030;-66
2023/07/30 06:25:23;;;;;;;8.53;2.80;;;;;;;;;;5060483;28;20919;-66
2023/07/30 06:27:48;;;;;;;8.57;2.47;;;;;;;;;;5058466;28;20266;-66
2023/07/30 06:30:13;;;;;;;6.63;2.30;;;;;;;;;;5077193;28;20076;-68
2023/07/30 06:32:38;;;;;;;8.38;2.20;;;;;;;;;;5087134;28;20321;-68
2023/07/30 06:35:04;;;;;;;7.05;2.00;;;;;;;;;;5063652;28;20131;-68
2023/07/30 06:37:30;;;;;;;7.18;2.63;;;;;;;;;;5053608;28;20028;-67
2023/07/30 06:39:55;;;;;;;8.15;2.15;;;;;;;;;;5060912;28;20024;-67
2023/07/30 06:42:20;;;;;;;10.60;2.88;;;;;;;;;;5053200;28;20027;-67
2023/07/30 06:44:45;;;;;;;8.18;2.55;;;;;;;;;;5057683;28;20028;-67
2023/07/30 06:47:11;;;;;;;8.17;2.30;;;;;;;;;;5053285;28;21143;-67
2023/07/30 06:49:36;;;;;;;8.07;2.58;;;;;;;;;;5054018;28;20662;-66
2023/07/30 06:52:02;;;;;;;7.65;2.50;;;;;;;;;;5075079;28;20043;-67
2023/07/30 06:54:31;;;;;;;7.38;2.38;;;;;;;;;;5099867;28;20421;-67
2023/07/30 06:56:56;;;;;;;12.10;2.92;;;;;;;;;;5108347;28;20020;-67
2023/07/30 06:59:22;;;;;;;7.25;2.40;;;;;;;;;;5111164;28;20051;-67
2023/07/30 07:01:47;;;;;;;6.40;2.40;;;;;;;;;;5101448;28;20031;-67
2023/07/30 07:04:12;;;;;;;8.43;2.85;;;;;;;;;;5073960;28;20270;-67
2023/07/30 07:06:37;;;;;;;7.32;2.88;;;;;;;;;;5054847;28;20797;-67
2023/07/30 07:09:03;;;;;;;13.18;3.13;;;;;;;;;;5069972;28;20051;-66
2023/07/30 07:11:28;;;;;;;6.50;2.28;;;;;;;;;;5050676;28;20368;-66
2023/07/30 07:13:53;;;;;;;10.70;2.83;;;;;;;;;;5057749;28;20024;-67
2023/07/30 07:16:18;;;;;;;7.63;2.80;;;;;;;;;;5072656;28;20019;-66
2023/07/30 07:18:44;;;;;;;8.25;2.80;;;;;;;;;;5060603;28;20023;-66
2023/07/30 07:21:10;;;;;;;10.63;3.05;;;;;;;;;;5063409;28;20761;-67
2023/07/30 07:23:35;;;;;;;11.48;2.58;;;;;;;;;;5059659;28;20031;-67
2023/07/30 07:26:00;;;;;;;12.38;2.78;;;;;;;;;;5106743;28;20064;-65
2023/07/30 07:28:25;;;;;;;8.87;2.90;;;;;;;;;;5078005;28;20046;-67
2023/07/30 07:30:51;;;;;;;8.45;2.72;;;;;;;;;;5072506;28;20281;-67
2023/07/30 07:33:16;;;;;;;9.50;2.55;;;;;;;;;;5054958;28;20078;-67
2023/07/30 07:35:42;;;;;;;6.32;2.72;;;;;;;;;;5057334;28;20953;-65
2023/07/30 07:38:07;;;;;;;7.40;2.78;;;;;;;;;;5060986;28;20023;-66
2023/07/30 07:40:41;;;;;;;8.27;2.88;;;;;;;;;;5051964;28;20797;-68
2023/07/30 07:43:07;;;;;;;13.20;3.85;;;;;;;;;;5060092;28;20081;-67
2023/07/30 07:45:32;;;;;;;12.82;3.80;;;;;;;;;;5061162;28;20016;-67
2023/07/30 07:47:58;;;;;;;9.35;2.92;;;;;;;;;;5062035;28;20995;-68
2023/07/30 07:50:23;;;;;;;10.90;3.58;;;;;;;;;;5069915;28;20052;-68
2023/07/30 07:52:48;;;;;;;8.82;2.80;;;;;;;;;;5108365;28;20033;-68
2023/07/30 07:55:14;;;;;;;9.50;3.03;;;;;;;;;;5105859;28;20027;-67
2023/07/30 07:57:39;;;;;;;8.75;3.17;;;;;;;;;;5111477;28;20545;-68
2023/07/30 08:00:05;;;;;;;9.07;3.08;;;;;;;;;;5106447;28;20278;-67
2023/07/30 08:02:30;;;;;;;7.80;2.75;;;;;;;;;;5109683;28;20020;-68
2023/07/30 08:04:55;;;;;;;9.82;2.90;;;;;;;;;;5107839;28;20062;-68
2023/07/30 08:07:21;;;;;;;10.40;3.08;;;;;;;;;;5066307;28;20122;-67
2023/07/30 08:09:46;;;;;;;7.85;2.95;;;;;;;;;;5059993;28;20120;-67
2023/07/30 08:12:12;;;;;;;12.30;3.20;;;;;;;;;;5049167;28;20857;-67
2023/07/30 08:14:38;;;;;;;7.45;2.35;;;;;;;;;;5056658;28;20039;-67
2023/07/30 08:17:04;;;;;;;8.85;2.83;;;;;;;;;;5059000;28;20055;-67
2023/07/30 08:19:29;;;;;;;7.10;2.38;;;;;;;;;;5065157;28;20024;-67
2023/07/30 08:21:56;;;;;;;9.32;2.72;;;;;;;;;;5095855;28;20027;-69
2023/07/30 08:24:21;;;;;;;7.88;2.38;;;;;;;;;;5100612;28;20019;-69
2023/07/30 08:26:47;;;;;;;8.27;1.83;;;;;;;;;;5095797;28;20020;-68
2023/07/30 08:29:13;;;;;;;9.00;2.50;;;;;;;;;;5100718;28;20028;-69
2023/07/30 08:31:38;;;;;;;12.32;2.78;;;;;;;;;;5093427;28;20630;-68
2023/07/30 08:34:04;;;;;;;8.03;2.47;;;;;;;;;;5103279;28;20030;-69
2023/07/30 08:36:29;;;;;;;12.77;3.00;;;;;;;;;;5100433;28;20785;-69
2023/07/30 08:38:54;;;;;;;7.57;2.90;;;;;;;;;;5111309;28;20802;-68
2023/07/30 08:41:19;;;;;;;9.43;3.07;;;;;;;;;;5101271;28;20081;-69
2023/07/30 08:43:48;;;;;;;7.20;2.80;;;;;;;;;;5101625;28;20285;-68
2023/07/30 08:46:14;;;;;;;9.68;2.72;;;;;;;;;;5096123;28;20262;-69
2023/07/30 08:48:39;;;;;;;13.75;2.28;;;;;;;;;;5099922;28;20020;-69
2023/07/30 08:51:04;;;;;;;6.83;2.40;;;;;;;;;;5091587;28;20074;-69
2023/07/30 08:53:29;;;;;;;4.93;1.83;;;;;;;;;;5092018;28;20637;-68
2023/07/30 08:55:55;;;;;;;11.70;2.95;;;;;;;;;;5097120;28;20345;-68
2023/07/30 08:58:21;;;;;;;6.28;2.20;;;;;;;;;;5105988;28;20477;-68
2023/07/30 09:00:47;;;;;;;12.20;2.75;;;;;;;;;;5105556;28;20070;-68
2023/07/30 09:03:14;;;;;;;7.55;2.30;;;;;;;;;;5108075;28;20059;-69
2023/07/30 09:05:40;;;;;;;9.23;3.30;;;;;;;;;;5108509;28;20473;-70
2023/07/30 09:08:05;;;;;;;8.87;2.23;;;;;;;;;;5108420;28;20038;-69
2023/07/30 09:10:31;;;;;;;7.03;2.47;;;;;;;;;;5090133;28;20391;-69
2023/07/30 09:13:00;;;;;;;5.47;1.98;;;;;;;;;;5109513;28;20054;-69
2023/07/30 09:15:32;;;;;;;8.07;2.95;;;;;;;;;;5106583;28;20032;-68
2023/07/30 09:17:58;;;;;;;7.00;2.65;;;;;;;;;;5080183;28;20513;-67
2023/07/30 09:20:23;;;;;;;6.85;2.70;;;;;;;;;;5105158;28;20015;-67
2023/07/30 09:22:49;;;;;;;6.57;2.25;;;;;;;;;;5082029;28;20035;-69
2023/07/30 09:25:18;;;;;;;8.23;2.40;;;;;;;;;;5048355;28;20016;-67
2023/07/30 09:27:47;;;;;;;8.63;2.50;;;;;;;;;;5052582;28;20845;-68
2023/07/30 09:30:12;;;;;;;4.90;1.85;;;;;;;;;;5055466;28;20031;-69
2023/07/30 09:32:37;;;;;;;7.35;2.25;;;;;;;;;;5046302;28;20859;-69
2023/07/30 09:35:07;;;;;;;5.22;2.05;;;;;;;;;;5052856;28;20027;-68
2023/07/30 09:37:41;;;;;;;7.72;2.58;;;;;;;;;;5048997;28;20037;-69
2023/07/30 09:40:07;;;;;;;3.47;1.90;;;;;;;;;;5059709;28;20024;-68
2023/07/30 09:42:39;;;;;;;5.18;2.20;;;;;;;;;;5052287;28;20926;-69
2023/07/30 09:45:06;;;;;;;6.85;2.42;;;;;;;;;;5058998;28;20024;-69
2023/07/30 09:47:33;;;;;;;5.35;2.15;;;;;;;;;;5060271;28;20024;-68
2023/07/30 09:49:59;;;;;;;4.18;1.95;;;;;;;;;;5101340;28;20036;-68
2023/07/30 09:52:24;;;;;;;5.75;2.20;;;;;;;;;;5092203;28;20031;-67
2023/07/30 09:54:51;;;;;;;7.17;2.20;;;;;;;;;;5103271;28;20058;-67
2023/07/30 09:57:17;;;;;;;5.82;2.15;;;;;;;;;;5087080;28;20277;-68
2023/07/30 09:59:42;;;;;;;8.43;2.30;;;;;;;;;;5053293;28;20024;-67
2023/07/30 10:02:08;;;;;;;5.78;2.03;;;;;;;;;;5063153;28;20261;-68
2023/07/30 10:04:34;;;;;;;9.23;2.30;;;;;;;;;;5060713;28;20101;-67
2023/07/30 10:07:13;;;;;;;7.20;2.13;;;;;;;;;;5093010;28;20034;-66
2023/07/30 10:09:43;;;;;;;8.35;2.30;;;;;;;;;;5088380;28;20040;-67
2023/07/30 10:12:11;;;;;;;5.72;2.30;;;;;;;;;;5100879;28;20490;-67
2023/07/30 10:14:36;;;;;;;5.20;1.90;;;;;;;;;;5113504;28;20031;-65
2023/07/30 10:17:01;;;;;;;10.70;2.28;;;;;;;;;;5112178;28;20027;-67
2023/07/30 10:19:27;;;;;;;6.35;1.73;;;;;;;;;;5111538;28;20027;-67
2023/07/30 10:22:12;;;;;;;5.32;1.92;;;;;;;;;;5113331;28;20494;-66
2023/07/30 10:24:37;;;;;;;4.80;2.25;;;;;;;;;;5078684;28;20080;-68
2023/07/30 10:27:06;;;;;;;7.90;2.35;;;;;;;;;;5057767;28;20097;-67
2023/07/30 10:29:34;;;;;;;7.70;2.03;;;;;;;;;;5058834;28;20080;-67
2023/07/30 10:32:00;;;;;;;9.15;1.85;;;;;;;;;;5075328;28;20107;-69
2023/07/30 10:34:26;;;;;;;6.43;2.00;;;;;;;;;;5105280;28;20050;-67
2023/07/30 10:36:52;;;;;;;3.88;1.83;;;;;;;;;;5103926;28;20020;-68
2023/07/30 10:39:17;;;;;;;8.15;2.35;;;;;;;;;;5061300;28;20030;-67
2023/07/30 10:41:43;;;;;;;6.30;1.80;;;;;;;;;;5060944;28;20034;-67
2023/07/30 10:44:17;;;;;;;6.30;1.88;;;;;;;;;;5062984;28;20461;-67
2023/07/30 10:46:42;;;;;;;4.07;1.47;;;;;;;;;;5052905;28;20127;-67
2023/07/30 10:49:09;;;;;;;4.97;1.60;;;;;;;;;;5058271;28;20281;-67
2023/07/30 10:51:35;;;;;;;2.97;0.95;;;;;;;;;;5054183;28;21154;-67
2023/07/30 10:54:00;;;;;;;4.38;1.17;;;;;;;;;;5076159;28;20016;-66
2023/07/30 10:56:25;;;;;;;3.38;1.40;;;;;;;;;;5111632;28;20040;-67
2023/07/30 10:58:51;;;;;;;5.18;1.52;;;;;;;;;;5105507;28;20040;-66
2023/07/30 11:01:17;;;;;;;4.70;1.52;;;;;;;;;;5083871;28;20968;-66
2023/07/30 11:03:42;;;;;;;4.78;1.52;;;;;;;;;;5090516;28;20020;-66
2023/07/30 11:06:10;;;;;;;4.22;1.38;;;;;;;;;;5094245;28;20028;-66
2023/07/30 11:08:36;;;;;;;8.43;2.00;;;;;;;;;;5097349;28;20115;-66
2023/07/30 11:11:02;;;;;;;5.60;1.83;;;;;;;;;;5093860;28;20024;-66
2023/07/30 11:13:27;;;;;;;5.38;2.03;;;;;;;;;;5103186;28;20390;-66
2023/07/30 11:15:52;;;;;;;5.50;1.42;;;;;;;;;;5105527;28;20016;-66
2023/07/30 11:18:17;;;;;;;8.80;2.47;;;;;;;;;;5103219;28;20034;-66
2023/07/30 11:20:43;;;;;;;8.10;1.90;;;;;;;;;;5107730;28;20034;-66
2023/07/30 11:23:21;;;;;;;4.43;1.53;;;;;;;;;;5106010;28;20027;-66
2023/07/30 11:25:48;;;;;;;4.72;1.60;;;;;;;;;;5099180;28;20783;-66
2023/07/30 11:28:13;;;;;;;5.95;1.65;;;;;;;;;;5097878;28;20055;-67
2023/07/30 11:30:38;;;;;;;7.87;1.97;;;;;;;;;;5071574;28;20877;-67
2023/07/30 11:33:03;;;;;;;6.00;2.30;;;;;;;;;;5078899;28;20419;-67
2023/07/30 11:35:29;;;;;;;4.17;1.80;;;;;;;;;;5090445;28;20440;-66
2023/07/30 11:37:55;;;;;;;4.90;1.70;;;;;;;;;;5094111;28;20293;-66
2023/07/30 11:40:20;;;;;;;5.45;1.98;;;;;;;;;;5095685;28;20031;-65
2023/07/30 11:42:46;;;;;;;5.35;1.80;;;;;;;;;;5104217;28;20102;-65
2023/07/30 11:45:19;;;;;;;6.18;1.90;;;;;;;;;;5101442;28;20071;-65
2023/07/30 11:47:44;;;;;;;6.97;1.80;;;;;;;;;;5100831;28;20037;-66
2023/07/30 11:50:09;;;;;;;5.93;1.90;;;;;;;;;;5100205;28;20020;-66
2023/07/30 11:52:34;;;;;;;6.03;2.08;;;;;;;;;;5108488;28;20331;-66
2023/07/30 11:55:01;;;;;;;3.43;1.50;;;;;;;;;;5103869;28;20020;-66
2023/07/30 11:57:33;;;;;;;4.20;1.42;;;;;;;;;;5106524;28;20366;-66
2023/07/30 11:59:58;;;;;;;4.18;1.67;;;;;;;;;;5103945;28;20028;-66
2023/07/30 12:02:23;;;;;;;3.78;1.65;;;;;;;;;;5111926;28;20023;-66
2023/07/30 12:04:49;;;;;;;4.93;1.63;;;;;;;;;;5107618;28;20103;-66
2023/07/30 12:07:21;;;;;;;3.30;1.30;;;;;;;;;;5108940;28;20258;-67
2023/07/30 12:09:46;;;;;;;3.22;1.23;;;;;;;;;;5107146;28;20277;-66
2023/07/30 12:12:12;;;;;;;2.57;1.23;;;;;;;;;;5098977;28;20383;-66
2023/07/30 12:14:43;;;;;;;4.43;1.43;;;;;;;;;;5104920;28;20028;-66
2023/07/30 12:17:08;;;;;;;4.00;1.35;;;;;;;;;;5092304;28;20596;-67
2023/07/30 12:19:36;;;;;;;3.08;1.17;;;;;;;;;;5110821;28;20024;-67
2023/07/30 12:22:01;;;;;;;3.25;1.23;;;;;;;;;;5110689;28;20027;-67
2023/07/30 12:24:26;;;;;;;4.03;1.10;;;;;;;;;;5109525;28;21428;-67
2023/07/30 12:26:51;;;;;;;3.33;1.30;;;;;;;;;;5092976;28;20118;-68
2023/07/30 12:29:17;;;;;;;4.60;1.65;;;;;;;;;;5107822;28;20084;-68
2023/07/30 12:31:42;;;;;;;6.03;1.60;;;;;;;;;;5092019;28;20462;-68
2023/07/30 12:34:07;;;;;;;4.20;1.40;;;;;;;;;;5101593;28;20628;-68
2023/07/30 12:36:32;;;;;;;3.63;1.30;;;;;;;;;;5099097;28;20032;-68
2023/07/30 12:38:58;;;;;;;4.67;1.50;;;;;;;;;;5104723;28;20032;-68
2023/07/30 12:41:25;;;;;;;4.93;1.20;;;;;;;;;;5094854;28;20755;-67
2023/07/30 12:43:56;;;;;;;2.58;1.05;;;;;;;;;;5037822;28;20772;-69
2023/07/30 12:46:21;;;;;;;3.55;1.20;;;;;;;;;;5055876;28;20093;-69
2023/07/30 12:48:46;;;;;;;3.75;1.40;;;;;;;;;;5057086;28;20137;-68
2023/07/30 12:51:12;;;;;;;4.65;1.55;;;;;;;;;;5067055;28;20058;-70
2023/07/30 12:53:37;;;;;;;4.17;1.50;;;;;;;;;;5091919;28;20439;-68
2023/07/30 12:56:02;;;;;;;4.53;1.57;;;;;;;;;;5110358;28;20131;-70
2023/07/30 12:58:27;;;;;;;2.97;1.02;;;;;;;;;;5110261;28;20285;-67
2023/07/30 13:00:53;;;;;;;5.07;1.30;;;;;;;;;;5110435;28;20020;-68
2023/07/30 13:03:18;;;;;;;3.03;1.27;;;;;;;;;;5108970;28;20301;-70
2023/07/30 13:05:43;;;;;;;3.70;1.73;;;;;;;;;;5096367;28;20030;-68
2023/07/30 13:08:08;;;;;;;8.27;1.77;;;;;;;;;;5051422;28;20335;-69
2023/07/30 13:10:35;;;;;;;3.13;1.23;;;;;;;;;;5091304;28;20836;-67
2023/07/30 13:13:00;;;;;;;2.92;1.08;;;;;;;;;;5093985;28;20358;-70
2023/07/30 13:15:25;;;;;;;3.63;1.30;;;;;;;;;;5110348;28;20027;-74
2023/07/30 13:17:50;;;;;;;5.37;1.50;;;;;;;;;;5079824;28;20802;-71
2023/07/30 13:20:16;;;;;;;2.60;1.20;;;;;;;;;;5101565;28;20325;-71
2023/07/30 13:22:41;;;;;;;3.00;1.30;;;;;;;;;;5110410;28;20280;-72
2023/07/30 13:25:06;;;;;;;3.70;1.20;;;;;;;;;;5113849;28;20020;-71
2023/07/30 13:27:32;;;;;;;5.28;1.30;;;;;;;;;;5113690;28;20278;-71
2023/07/30 13:29:57;;;;;;;4.30;1.67;;;;;;;;;;5109252;28;20032;-73
2023/07/30 13:32:22;;;;;;;4.03;1.50;;;;;;;;;;5106745;28;22006;-74
2023/07/30 13:34:47;;;;;;;4.07;1.43;;;;;;;;;;5112822;28;20284;-78
2023/07/30 13:37:13;;;;;;;3.93;1.00;;;;;;;;;;5112501;28;20269;-74
2023/07/30 13:39:39;;;;;;;4.03;1.80;;;;;;;;;;5103520;28;20368;-68
2023/07/30 13:42:04;;;;;;;3.03;1.08;;;;;;;;;;5096057;28;20021;-69
2023/07/30 13:44:29;;;;;;;2.15;0.98;;;;;;;;;;5095560;28;20536;-71
2023/07/30 13:46:54;;;;;;;4.13;1.33;;;;;;;;;;5098429;28;20122;-66
2023/07/30 13:49:20;;;;;;;3.40;1.30;;;;;;;;;;5106019;28;20300;-69
2023/07/30 13:51:45;;;;;;;5.30;1.70;;;;;;;;;;5095298;28;20310;-69
2023/07/30 13:54:10;;;;;;;2.72;1.10;;;;;;;;;;5097334;28;20270;-66
2023/07/30 13:56:38;;;;;;;2.90;1.42;;;;;;;;;;5099249;28;20032;-68
2023/07/30 13:59:03;;;;;;;4.03;1.55;;;;;;;;;;5094460;28;20105;-68
2023/07/30 14:01:29;;;;;;;3.20;1.03;;;;;;;;;;5094556;28;20043;-68
2023/07/30 14:03:57;;;;;;;3.03;1.27;;;;;;;;;;5100139;28;20274;-70
2023/07/30 14:06:22;;;;;;;5.35;1.70;;;;;;;;;;5110359;28;20036;-66
2023/07/30 14:08:48;;;;;;;2.97;1.33;;;;;;;;;;5111740;28;20434;-66
2023/07/30 14:11:13;;;;;;;5.63;1.50;;;;;;;;;;5096258;28;20032;-69
2023/07/30 14:13:38;;;;;;;3.73;1.47;;;;;;;;;;5113474;28;20035;-67
2023/07/30 14:16:04;;;;;;;2.87;1.53;;;;;;;;;;5100027;28;20289;-64
2023/07/30 14:18:29;;;;;;;3.58;1.27;;;;;;;;;;5094011;28;20365;-67
2023/07/30 14:20:54;;;;;;;3.47;1.35;;;;;;;;;;5089655;28;20047;-63
2023/07/30 14:23:20;;;;;;;3.65;1.27;;;;;;;;;;5099754;28;20051;-66
2023/07/30 14:25:45;;;;;;;3.67;1.50;;;;;;;;;;5100323;28;20056;-66
2023/07/30 14:28:10;;;;;;;3.60;1.30;;;;;;;;;;5094072;28;20261;-69
2023/07/30 14:30:35;;;;;;;3.50;1.20;;;;;;;;;;5092926;28;20764;-66
2023/07/30 14:33:01;;;;;;;3.20;1.50;;;;;;;;;;5106840;28;20632;-67
2023/07/30 14:35:27;;;;;;;3.45;1.40;;;;;;;;;;5110184;28;20024;-65